createdAt,value
2023-03-06T00:00:54.870Z,96326.34
2023-03-06T00:03:23.220Z,96326.09
2023-03-06T00:05:51.302Z,96327.04
2023-03-06T00:08:19.322Z,96324.63
2023-03-06T00:10:47.507Z,96322.90
2023-03-06T00:13:16.511Z,96327.58
2023-03-06T00:15:44.900Z,96328.69
2023-03-06T00:18:13.165Z,96328.05
2023-03-06T00:20:42.372Z,96326.92
2023-03-06T00:23:11.138Z,96328.73
2023-03-06T00:25:42.307Z,96332.26
2023-03-06T00:28:10.392Z,96332.20
2023-03-06T00:30:38.774Z,96330.23
2023-03-06T00:33:06.852Z,96331.71
2023-03-06T00:35:34.849Z,96328.67
2023-03-06T00:38:02.901Z,96325.80
2023-03-06T00:40:30.869Z,96325.49
2023-03-06T00:42:58.964Z,96328.83
2023-03-06T00:45:26.952Z,96327.86
2023-03-06T00:47:55.096Z,96330.52
2023-03-06T00:50:22.981Z,96335.89
2023-03-06T00:52:51.048Z,96332.30
2023-03-06T00:55:19.027Z,96336.12
2023-03-06T00:57:47.101Z,96336.30
2023-03-06T01:00:15.334Z,96335.86
2023-03-06T01:02:43.463Z,96334.66
2023-03-06T01:05:13.279Z,96337.97
2023-03-06T01:07:41.354Z,96336.39
2023-03-06T01:10:09.980Z,96336.80
2023-03-06T01:12:38.123Z,96336.10
2023-03-06T01:15:07.106Z,96336.38
2023-03-06T01:17:36.115Z,96336.92
2023-03-06T01:20:05.021Z,96340.26
2023-03-06T01:22:32.979Z,96337.73
2023-03-06T01:25:01.158Z,96340.89
2023-03-06T01:27:29.138Z,96339.25
2023-03-06T01:29:57.213Z,96342.95
2023-03-06T01:32:25.138Z,96339.87
2023-03-06T01:34:53.263Z,96340.73
2023-03-06T01:37:21.239Z,96341.66
2023-03-06T01:39:49.305Z,96336.30
2023-03-06T01:42:17.492Z,96337.73
2023-03-06T01:45:00.714Z,96336.59
2023-03-06T01:47:28.997Z,96339.44
2023-03-06T01:49:58.089Z,96331.56
2023-03-06T01:52:28.526Z,96330.84
2023-03-06T01:55:07.553Z,96327.55
2023-03-06T01:57:38.712Z,96325.30
2023-03-06T02:00:11.988Z,96331.20
2023-03-06T02:02:47.577Z,96332.52
2023-03-06T02:05:16.253Z,96332.79
2023-03-06T02:07:45.335Z,96333.61
2023-03-06T02:10:15.772Z,96337.31
2023-03-06T02:12:44.140Z,96337.61
2023-03-06T02:15:14.067Z,96340.14
2023-03-06T02:17:42.441Z,96342.63
2023-03-06T02:20:13.518Z,96343.30
2023-03-06T02:22:52.422Z,96344.31
2023-03-06T02:25:23.260Z,96345.00
2023-03-06T02:27:51.298Z,96346.17
2023-03-06T02:30:19.334Z,96344.08
2023-03-06T02:32:47.265Z,96343.19
2023-03-06T02:35:18.339Z,96341.23
2023-03-06T02:37:46.923Z,96342.30
2023-03-06T02:40:17.458Z,96340.90
2023-03-06T02:42:49.616Z,96349.60
2023-03-06T02:45:21.588Z,96348.06
2023-03-06T02:47:49.654Z,96348.12
2023-03-06T02:50:17.741Z,96346.76
2023-03-06T02:52:45.910Z,96344.61
2023-03-06T02:55:13.987Z,96347.01
2023-03-06T02:57:42.157Z,96343.95
2023-03-06T03:00:10.646Z,96350.02
2023-03-06T03:02:38.833Z,96351.16
2023-03-06T03:05:07.410Z,96352.33
2023-03-06T03:07:36.416Z,96350.59
2023-03-06T03:10:04.896Z,96352.09
2023-03-06T03:12:33.377Z,96353.75
2023-03-06T03:15:01.458Z,96347.65
2023-03-06T03:17:29.740Z,96351.61
2023-03-06T03:19:58.227Z,96352.52
2023-03-06T03:22:26.286Z,96348.05
2023-03-06T03:24:54.294Z,96345.60
2023-03-06T03:27:22.428Z,96349.34
2023-03-06T03:29:50.742Z,96343.67
2023-03-06T03:32:19.648Z,96345.16
2023-03-06T03:34:47.813Z,96345.48
2023-03-06T03:37:16.097Z,96343.38
2023-03-06T03:39:44.277Z,96342.98
2023-03-06T03:42:12.964Z,96347.40
2023-03-06T03:44:41.353Z,96351.90
2023-03-06T03:47:09.523Z,96347.77
2023-03-06T03:49:38.935Z,96344.86
2023-03-06T03:52:07.213Z,96346.56
2023-03-06T03:54:36.629Z,96351.27
2023-03-06T03:57:04.903Z,96356.05
2023-03-06T03:59:35.125Z,96358.63
2023-03-06T04:02:32.274Z,96358.71
2023-03-06T04:05:08.102Z,96363.26
2023-03-06T04:07:36.502Z,96363.44
2023-03-06T04:10:05.974Z,96366.27
2023-03-06T04:12:33.979Z,96361.15
2023-03-06T04:15:02.779Z,96362.98
2023-03-06T04:17:34.194Z,96362.52
2023-03-06T04:20:05.026Z,96366.52
2023-03-06T04:22:33.657Z,96365.34
2023-03-06T04:25:01.862Z,96367.40
2023-03-06T04:27:30.017Z,96368.43
2023-03-06T04:29:58.198Z,96365.73
2023-03-06T04:32:26.488Z,96368.17
2023-03-06T04:34:55.066Z,96368.19
2023-03-06T04:37:25.019Z,96364.27
2023-03-06T04:39:53.321Z,96370.69
2023-03-06T04:42:21.445Z,96366.66
2023-03-06T04:44:49.488Z,96369.89
2023-03-06T04:47:19.115Z,96368.10
2023-03-06T04:49:47.724Z,96369.52
2023-03-06T04:52:15.897Z,96370.58
2023-03-06T04:54:43.766Z,96371.95
2023-03-06T04:57:11.662Z,96373.83
2023-03-06T04:59:39.835Z,96371.84
2023-03-06T05:02:07.910Z,96371.52
2023-03-06T05:04:35.969Z,96373.59
2023-03-06T05:07:04.349Z,96377.58
2023-03-06T05:09:33.776Z,96378.33
2023-03-06T05:12:02.246Z,96380.60
2023-03-06T05:14:30.833Z,96382.24
2023-03-06T05:16:58.727Z,96386.77
2023-03-06T05:19:26.777Z,96386.96
2023-03-06T05:21:54.958Z,96388.73
2023-03-06T05:24:22.985Z,96391.50
2023-03-06T05:26:50.908Z,96393.91
2023-03-06T05:29:19.281Z,96396.47
2023-03-06T05:31:47.514Z,96400.96
2023-03-06T05:34:16.375Z,96398.77
2023-03-06T05:36:44.578Z,96402.91
2023-03-06T05:39:13.331Z,96403.11
2023-03-06T05:41:41.222Z,96402.59
2023-03-06T05:44:09.185Z,96402.61
2023-03-06T05:46:38.295Z,96409.30
2023-03-06T05:49:06.255Z,96406.77
2023-03-06T05:51:34.234Z,96410.86
2023-03-06T05:54:02.208Z,96410.54
2023-03-06T05:56:30.078Z,96408.81
2023-03-06T05:58:58.151Z,96411.91
2023-03-06T06:01:28.587Z,96413.98
2023-03-06T06:03:56.552Z,96413.29
2023-03-06T06:06:24.531Z,96413.67
2023-03-06T06:08:52.498Z,96411.92
2023-03-06T06:11:21.297Z,96416.18
2023-03-06T06:13:49.681Z,96411.29
2023-03-06T06:16:19.147Z,96415.85
2023-03-06T06:18:47.259Z,96417.17
2023-03-06T06:21:15.965Z,96410.34
2023-03-06T06:23:44.230Z,96412.15
2023-03-06T06:26:12.294Z,96412.83
2023-03-06T06:28:40.183Z,96416.91
2023-03-06T06:31:12.900Z,96415.37
2023-03-06T06:33:41.586Z,96416.70
2023-03-06T06:36:16.905Z,96420.19
2023-03-06T06:38:44.986Z,96421.80
2023-03-06T06:41:36.125Z,96427.06
2023-03-06T06:44:01.281Z,96423.28
2023-03-06T06:49:17.907Z,96428.02
2023-03-06T06:51:45.977Z,96424.19
2023-03-06T06:54:14.162Z,96427.65
2023-03-06T06:56:42.139Z,96427.04
2023-03-06T06:59:16.490Z,96425.11
2023-03-06T07:01:45.527Z,96423.99
2023-03-06T07:04:14.306Z,96425.08
2023-03-06T07:06:42.996Z,96430.77
2023-03-06T07:09:12.123Z,96431.49
2023-03-06T07:11:40.843Z,96430.44
2023-03-06T07:14:08.898Z,96433.16
2023-03-06T07:16:36.980Z,96435.54
2023-03-06T07:19:05.369Z,96431.80
2023-03-06T07:21:33.336Z,96434.70
2023-03-06T07:24:01.318Z,96439.36
2023-03-06T07:26:32.102Z,96439.20
2023-03-06T07:29:01.657Z,96437.45
2023-03-06T07:31:29.667Z,96435.58
2023-03-06T07:33:57.943Z,96435.06
2023-03-06T07:36:26.129Z,96441.55
2023-03-06T07:38:54.379Z,96440.42
2023-03-06T07:41:22.762Z,96437.85
2023-03-06T07:43:50.948Z,96443.88
2023-03-06T07:46:19.612Z,96438.34
2023-03-06T07:48:47.611Z,96439.72
2023-03-06T07:51:17.115Z,96437.38
2023-03-06T07:53:45.226Z,96436.04
2023-03-06T07:56:13.681Z,96441.34
2023-03-06T07:58:43.201Z,96444.98
2023-03-06T08:01:12.899Z,96447.42
2023-03-06T08:03:41.029Z,96443.34
2023-03-06T08:06:10.580Z,96445.52
2023-03-06T08:08:39.795Z,96446.96
2023-03-06T08:11:08.491Z,96446.34
2023-03-06T08:13:36.763Z,96447.15
2023-03-06T08:16:05.507Z,96448.02
2023-03-06T08:18:33.949Z,96451.60
2023-03-06T08:21:13.160Z,96458.13
2023-03-06T08:23:41.754Z,96458.76
2023-03-06T08:26:17.813Z,96460.79
2023-03-06T08:28:46.101Z,96456.95
2023-03-06T08:31:19.904Z,96453.80
2023-03-06T08:33:47.879Z,96456.29
2023-03-06T08:36:15.848Z,96457.78
2023-03-06T08:38:44.038Z,96455.63
2023-03-06T08:41:12.105Z,96459.13
2023-03-06T08:43:40.484Z,96457.50
2023-03-06T08:46:10.200Z,96454.66
2023-03-06T08:48:38.986Z,96456.70
2023-03-06T08:51:08.698Z,96458.11
2023-03-06T08:53:43.152Z,96458.17
2023-03-06T08:56:19.518Z,96455.02
2023-03-06T08:58:48.106Z,96457.66
2023-03-06T09:01:21.532Z,96456.91
2023-03-06T09:03:50.474Z,96455.31
2023-03-06T09:06:18.265Z,96455.91
2023-03-06T09:08:46.236Z,96455.32
2023-03-06T09:11:15.245Z,96454.19
2023-03-06T09:13:43.590Z,96451.16
2023-03-06T09:16:12.150Z,96458.66
2023-03-06T09:18:40.484Z,96461.19
2023-03-06T09:21:09.278Z,96464.55
2023-03-06T09:23:39.529Z,96462.93
2023-03-06T09:26:08.180Z,96459.44
2023-03-06T09:28:38.971Z,96457.73
2023-03-06T09:31:08.046Z,96463.98
2023-03-06T09:33:36.301Z,96461.48
2023-03-06T09:36:04.993Z,96459.84
2023-03-06T09:38:33.280Z,96460.79
2023-03-06T09:41:22.366Z,96460.02
2023-03-06T09:43:52.359Z,96456.14
2023-03-06T09:46:25.257Z,96461.21
2023-03-06T09:49:12.034Z,96460.84
2023-03-06T09:51:49.433Z,96462.85
2023-03-06T09:54:19.542Z,96464.88
2023-03-06T09:56:49.147Z,96462.59
2023-03-06T09:59:22.078Z,96461.71
2023-03-06T10:01:56.442Z,96458.91
2023-03-06T10:04:50.754Z,96452.85
2023-03-06T10:07:18.699Z,96450.92
2023-03-06T10:09:51.707Z,96451.45
2023-03-06T10:12:25.000Z,96453.05
2023-03-06T10:15:07.394Z,96456.00
2023-03-06T10:17:37.838Z,96454.13
2023-03-06T10:20:25.442Z,96451.98
2023-03-06T10:23:05.177Z,96453.22
2023-03-06T10:25:38.591Z,96455.86
2023-03-06T10:28:12.493Z,96455.40
2023-03-06T10:30:40.476Z,96454.32
2023-03-06T10:33:27.073Z,96443.89
2023-03-06T10:35:56.362Z,96438.46
2023-03-06T10:38:33.152Z,96433.20
2023-03-06T10:41:01.129Z,96426.39
2023-03-06T10:43:29.159Z,96427.46
2023-03-06T10:45:57.376Z,96429.30
2023-03-06T10:48:27.508Z,96425.92
2023-03-06T10:51:18.088Z,96423.75
2023-03-06T10:53:51.707Z,96419.63
2023-03-06T10:56:28.986Z,96422.64
2023-03-06T10:59:12.308Z,96419.94
2023-03-06T11:01:41.658Z,96410.39
2023-03-06T11:04:17.390Z,96403.45
2023-03-06T11:06:45.438Z,96402.58
2023-03-06T11:09:15.775Z,96405.02
2023-03-06T11:11:43.844Z,96397.12
2023-03-06T11:14:15.091Z,96396.10
2023-03-06T11:16:52.899Z,96390.46
2023-03-06T11:19:25.695Z,96389.44
2023-03-06T11:22:02.451Z,96387.65
2023-03-06T11:24:39.736Z,96383.44
2023-03-06T11:27:30.630Z,96383.86
2023-03-06T11:30:00.164Z,96378.25
2023-03-06T11:32:30.323Z,96372.41
2023-03-06T11:35:05.911Z,96373.41
2023-03-06T11:37:34.081Z,96366.09
2023-03-06T11:40:11.172Z,96359.10
2023-03-06T11:42:42.103Z,96351.77
2023-03-06T11:45:19.213Z,96348.37
2023-03-06T11:47:54.462Z,96342.61
2023-03-06T11:50:31.209Z,96341.69
2023-03-06T11:53:01.769Z,96339.98
2023-03-06T11:55:56.097Z,96333.31
2023-03-06T11:58:27.065Z,96333.64
2023-03-06T12:01:01.536Z,96334.76
2023-03-06T12:03:38.667Z,96328.80
2023-03-06T12:06:25.677Z,96327.09
2023-03-06T12:09:12.078Z,96323.25
2023-03-06T12:11:43.721Z,96322.97
2023-03-06T12:14:19.890Z,96319.95
2023-03-06T12:16:58.708Z,96319.83
2023-03-06T12:19:53.529Z,96319.64
2023-03-06T12:22:57.543Z,96318.12
2023-03-06T12:25:32.023Z,96316.77
2023-03-06T12:28:19.270Z,96310.77
2023-03-06T12:30:52.984Z,96313.40
2023-03-06T12:33:26.423Z,96307.23
2023-03-06T12:36:12.827Z,96312.22
2023-03-06T12:38:41.009Z,96307.41
2023-03-06T12:41:15.361Z,96305.52
2023-03-06T12:43:43.401Z,96305.33
2023-03-06T12:46:20.521Z,96302.63
2023-03-06T12:48:55.828Z,96300.09
2023-03-06T12:51:24.721Z,96295.52
2023-03-06T12:53:53.514Z,96291.79
2023-03-06T12:56:22.305Z,96287.65
2023-03-06T12:58:51.832Z,96280.76
2023-03-06T13:01:41.616Z,96274.06
2023-03-06T13:04:18.560Z,96265.20
2023-03-06T13:06:51.421Z,96266.23
2023-03-06T13:09:51.865Z,96267.02
2023-03-06T13:12:32.020Z,96266.11
2023-03-06T13:15:19.038Z,96260.60
2023-03-06T13:17:47.117Z,96258.83
2023-03-06T13:20:15.176Z,96261.84
2023-03-06T13:22:44.382Z,96260.23
2023-03-06T13:25:21.429Z,96263.05
2023-03-06T13:27:52.417Z,96258.70
2023-03-06T13:30:23.746Z,96258.64
2023-03-06T13:32:55.107Z,96256.64
2023-03-06T13:35:32.364Z,96252.70
2023-03-06T13:38:00.846Z,96251.25
2023-03-06T13:40:37.859Z,96250.21
2023-03-06T13:43:08.849Z,96248.43
2023-03-06T13:45:43.325Z,96244.81
2023-03-06T13:48:47.650Z,96239.65
2023-03-06T13:51:24.427Z,96240.42
2023-03-06T13:54:08.438Z,96238.30
2023-03-06T13:56:39.892Z,96239.84
2023-03-06T13:59:13.151Z,96239.27
2023-03-06T14:01:50.238Z,96237.09
2023-03-06T14:04:47.504Z,96233.56
2023-03-06T14:07:18.649Z,96229.77
2023-03-06T14:09:55.402Z,96231.02
2023-03-06T14:12:30.457Z,96228.39
2023-03-06T14:15:00.048Z,96222.81
2023-03-06T14:17:33.268Z,96215.18
2023-03-06T14:20:06.162Z,96209.73
2023-03-06T14:22:34.127Z,96207.59
2023-03-06T14:25:25.937Z,96208.10
2023-03-06T14:27:58.207Z,96210.02
2023-03-06T14:30:28.873Z,96211.25
2023-03-06T14:32:57.340Z,96210.41
2023-03-06T14:35:30.166Z,96207.81
2023-03-06T14:38:03.937Z,96203.11
2023-03-06T14:40:52.468Z,96203.23
2023-03-06T14:43:21.994Z,96199.57
2023-03-06T14:45:51.291Z,96199.02
2023-03-06T14:48:19.269Z,96198.67
2023-03-06T14:50:57.065Z,96198.51
2023-03-06T14:53:29.540Z,96206.20
2023-03-06T14:56:00.586Z,96204.86
2023-03-06T14:58:36.647Z,96198.05
2023-03-06T15:01:11.315Z,96201.48
2023-03-06T15:03:48.665Z,96200.80
2023-03-06T15:06:19.706Z,96204.98
2023-03-06T15:08:49.419Z,96203.04
2023-03-06T15:11:17.498Z,96201.95
2023-03-06T15:13:59.797Z,96196.12
2023-03-06T15:16:30.154Z,96199.92
2023-03-06T15:19:02.722Z,96201.86
2023-03-06T15:21:38.248Z,96196.71
2023-03-06T15:24:25.001Z,96195.46
2023-03-06T15:26:54.865Z,96189.44
2023-03-06T15:29:23.248Z,96196.44
2023-03-06T15:31:51.303Z,96196.10
2023-03-06T15:34:23.709Z,96196.39
2023-03-06T15:36:54.330Z,96197.95
2023-03-06T15:39:39.305Z,96201.17
2023-03-06T15:42:13.306Z,96199.95
2023-03-06T15:44:41.608Z,96201.79
2023-03-06T15:47:11.508Z,96199.67
2023-03-06T15:49:39.797Z,96198.88
2023-03-06T15:52:08.009Z,96199.40
2023-03-06T15:54:36.035Z,96200.36
2023-03-06T15:57:05.356Z,96200.13
2023-03-06T15:59:35.783Z,96201.20
2023-03-06T16:02:11.839Z,96196.63
2023-03-06T16:04:40.015Z,96197.95
2023-03-06T16:07:08.814Z,96197.32
2023-03-06T16:09:37.299Z,96199.23
2023-03-06T16:12:05.895Z,96202.80
2023-03-06T16:14:34.165Z,96202.14
2023-03-06T16:17:02.180Z,96202.74
2023-03-06T16:19:30.425Z,96205.27
2023-03-06T16:21:59.324Z,96200.25
2023-03-06T16:24:27.370Z,96196.22
2023-03-06T16:26:55.468Z,96192.55
2023-03-06T16:29:25.586Z,96188.59
2023-03-06T16:31:55.225Z,96192.96
2023-03-06T16:34:23.785Z,96186.61
2023-03-06T16:36:51.861Z,96186.84
2023-03-06T16:39:21.716Z,96187.02
2023-03-06T16:41:50.377Z,96190.12
2023-03-06T16:44:18.650Z,96187.20
2023-03-06T16:46:47.449Z,96187.90
2023-03-06T16:49:17.072Z,96187.01
2023-03-06T16:51:45.551Z,96190.51
2023-03-06T16:54:14.239Z,96190.50
2023-03-06T16:56:42.621Z,96193.88
2023-03-06T16:59:11.308Z,96190.38
2023-03-06T17:01:40.248Z,96187.06
2023-03-06T17:04:08.559Z,96184.44
2023-03-06T17:06:36.673Z,96178.33
2023-03-06T17:09:05.043Z,96175.85
2023-03-06T17:11:33.124Z,96179.88
2023-03-06T17:14:01.557Z,96183.92
2023-03-06T17:16:29.615Z,96181.64
2023-03-06T17:18:58.261Z,96175.86
2023-03-06T17:21:27.181Z,96176.12
2023-03-06T17:23:55.639Z,96173.66
2023-03-06T17:26:23.834Z,96172.91
2023-03-06T17:28:51.840Z,96168.23
2023-03-06T17:31:25.511Z,96165.20
2023-03-06T17:33:59.928Z,96165.90
2023-03-06T17:36:28.545Z,96156.90
2023-03-06T17:38:57.350Z,96151.45
2023-03-06T17:41:25.803Z,96149.05
2023-03-06T17:43:57.935Z,96155.30
2023-03-06T17:46:26.300Z,96158.41
2023-03-06T17:48:54.835Z,96155.09
2023-03-06T17:51:22.920Z,96152.39
2023-03-06T17:53:52.244Z,96150.05
2023-03-06T17:56:20.404Z,96150.83
2023-03-06T17:58:48.673Z,96148.23
2023-03-06T18:01:18.629Z,96151.26
2023-03-06T18:03:48.408Z,96148.79
2023-03-06T18:06:17.712Z,96149.77
2023-03-06T18:08:46.206Z,96148.34
2023-03-06T18:11:14.368Z,96150.45
2023-03-06T18:13:43.388Z,96149.64
2023-03-06T18:16:12.542Z,96148.25
2023-03-06T18:18:40.863Z,96148.86
2023-03-06T18:21:10.364Z,96147.85
2023-03-06T18:23:39.069Z,96142.15
2023-03-06T18:26:09.446Z,96149.15
2023-03-06T18:28:40.642Z,96149.46
2023-03-06T18:31:15.649Z,96150.91
2023-03-06T18:33:44.265Z,96153.67
2023-03-06T18:36:12.235Z,96153.22
2023-03-06T18:38:41.645Z,96150.71
2023-03-06T18:41:10.638Z,96149.99
2023-03-06T18:43:39.128Z,96146.26
2023-03-06T18:46:07.267Z,96143.99
2023-03-06T18:48:36.061Z,96143.63
2023-03-06T18:51:05.415Z,96141.70
2023-03-06T18:53:33.794Z,96132.17
2023-03-06T18:56:02.572Z,96131.23
2023-03-06T18:58:30.769Z,96130.48
2023-03-06T19:01:01.046Z,96126.14
2023-03-06T19:03:29.070Z,96127.63
2023-03-06T19:05:57.243Z,96124.42
2023-03-06T19:08:25.554Z,96124.88
2023-03-06T19:10:53.611Z,96124.72
2023-03-06T19:13:21.682Z,96125.60
2023-03-06T19:15:49.661Z,96122.86
2023-03-06T19:18:18.253Z,96123.64
2023-03-06T19:20:46.504Z,96120.58
2023-03-06T19:23:14.601Z,96113.65
2023-03-06T19:25:42.778Z,96111.33
2023-03-06T19:28:10.756Z,96111.48
2023-03-06T19:30:42.008Z,96105.90
2023-03-06T19:33:09.980Z,96100.64
2023-03-06T19:35:38.291Z,96103.50
2023-03-06T19:38:06.236Z,96102.30
2023-03-06T19:40:35.537Z,96100.11
2023-03-06T19:43:04.127Z,96101.89
2023-03-06T19:45:32.253Z,96100.95
2023-03-06T19:48:01.099Z,96098.45
2023-03-06T19:50:29.843Z,96099.76
2023-03-06T19:52:58.180Z,96093.66
2023-03-06T19:55:28.811Z,96095.13
2023-03-06T19:57:56.786Z,96097.63
2023-03-06T20:00:24.910Z,96095.49
2023-03-06T20:02:53.262Z,96095.92
2023-03-06T20:05:21.425Z,96096.39
2023-03-06T20:07:49.912Z,96091.00
2023-03-06T20:10:18.492Z,96090.47
2023-03-06T20:12:46.468Z,96086.04
2023-03-06T20:15:14.330Z,96083.38
2023-03-06T20:17:42.201Z,96077.09
2023-03-06T20:20:10.953Z,96071.11
2023-03-06T20:22:39.194Z,96065.34
2023-03-06T20:25:07.664Z,96062.48
2023-03-06T20:27:35.739Z,96062.23
2023-03-06T20:30:06.422Z,96062.89
2023-03-06T20:32:36.135Z,96058.14
2023-03-06T20:35:04.673Z,96056.15
2023-03-06T20:37:32.539Z,96051.81
2023-03-06T20:40:00.514Z,96054.68
2023-03-06T20:42:28.594Z,96049.30
2023-03-06T20:44:56.481Z,96046.49
2023-03-06T20:47:24.445Z,96047.88
2023-03-06T20:49:52.314Z,96045.23
2023-03-06T20:52:20.388Z,96050.14
2023-03-06T20:54:48.574Z,96052.66
2023-03-06T20:57:16.541Z,96053.58
2023-03-06T20:59:45.540Z,96056.11
2023-03-06T21:02:15.046Z,96053.73
2023-03-06T21:04:43.365Z,96047.36
2023-03-06T21:07:11.402Z,96045.71
2023-03-06T21:09:39.805Z,96043.70
2023-03-06T21:12:07.868Z,96042.39
2023-03-06T21:14:36.070Z,96046.55
2023-03-06T21:17:04.126Z,96046.61
2023-03-06T21:19:32.305Z,96039.81
2023-03-06T21:22:00.377Z,96041.21
2023-03-06T21:24:28.665Z,96047.10
2023-03-06T21:26:56.744Z,96043.21
2023-03-06T21:29:24.919Z,96039.59
2023-03-06T21:31:53.013Z,96040.14
2023-03-06T21:34:21.280Z,96033.78
2023-03-06T21:36:49.250Z,96036.21
2023-03-06T21:39:17.228Z,96035.96
2023-03-06T21:41:45.199Z,96030.71
2023-03-06T21:44:13.168Z,96026.22
2023-03-06T21:46:41.147Z,96023.85
2023-03-06T21:49:09.054Z,96021.46
2023-03-06T21:51:37.205Z,96024.44
2023-03-06T21:54:06.192Z,96017.12
2023-03-06T21:56:34.270Z,96022.98
2023-03-06T21:59:02.140Z,96023.16
2023-03-06T22:01:30.518Z,96026.05
2023-03-06T22:03:59.952Z,96022.32
2023-03-06T22:06:29.155Z,96017.38
2023-03-06T22:08:58.637Z,96011.44
2023-03-06T22:11:28.263Z,96007.94
2023-03-06T22:13:56.395Z,96004.28
2023-03-06T22:16:24.777Z,96008.02
2023-03-06T22:18:52.988Z,96011.97
2023-03-06T22:21:22.203Z,96012.71
2023-03-06T22:23:55.488Z,96012.20
2023-03-06T22:26:23.706Z,96020.27
2023-03-06T22:28:51.760Z,96021.41
2023-03-06T22:31:21.531Z,96017.98
2023-03-06T22:33:53.526Z,96022.95
2023-03-06T22:36:22.218Z,96027.72
2023-03-06T22:38:53.467Z,96034.42
2023-03-06T22:41:22.260Z,96035.42
2023-03-06T22:43:50.680Z,96034.54
2023-03-06T22:46:18.996Z,96036.54
2023-03-06T22:48:46.997Z,96034.09
2023-03-06T22:51:16.193Z,96028.52
2023-03-06T22:53:45.300Z,96029.65
2023-03-06T22:56:14.614Z,96032.00
2023-03-06T22:58:44.974Z,96030.42
2023-03-06T23:01:20.872Z,96030.07
2023-03-06T23:03:50.513Z,96026.64
2023-03-06T23:06:20.241Z,96026.58
2023-03-06T23:08:49.625Z,96030.39
2023-03-06T23:11:19.836Z,96030.12
2023-03-06T23:14:06.325Z,96031.93
2023-03-06T23:16:53.247Z,96033.55
2023-03-06T23:19:39.542Z,96033.50
2023-03-06T23:22:26.041Z,96033.39
2023-03-06T23:25:12.441Z,96029.38
2023-03-06T23:27:41.346Z,96032.50
2023-03-06T23:30:10.024Z,96033.77
2023-03-06T23:32:38.228Z,96035.20
2023-03-06T23:35:07.646Z,96040.25
2023-03-06T23:37:35.892Z,96042.93
2023-03-06T23:40:08.001Z,96039.89
2023-03-06T23:42:36.240Z,96043.94
2023-03-06T23:45:04.424Z,96040.71
2023-03-06T23:47:33.313Z,96040.22
2023-03-06T23:50:01.320Z,96043.75
2023-03-06T23:52:29.360Z,96042.54
2023-03-06T23:54:57.543Z,96042.96
2023-03-06T23:57:25.721Z,96043.89
2023-03-06T23:59:53.705Z,96047.23
